sensor_id;sensor_type;location;lat;lon;timestamp;temperature;humidity
55771;DHT22;41687;-33.234;-60.334;2024-01-30T00:01:04;28.00;46.80
55771;DHT22;41687;-33.234;-60.334;2024-01-30T00:03:32;28.00;46.90
55771;DHT22;41687;-33.234;-60.334;2024-01-30T00:05:59;28.00;46.70
55771;DHT22;41687;-33.234;-60.334;2024-01-30T00:08:27;28.00;47.40
55771;DHT22;41687;-33.234;-60.334;2024-01-30T00:10:54;28.00;48.10
55771;DHT22;41687;-33.234;-60.334;2024-01-30T00:13:22;28.00;48.30
55771;DHT22;41687;-33.234;-60.334;2024-01-30T00:15:49;27.90;48.40
55771;DHT22;41687;-33.234;-60.334;2024-01-30T00:18:17;27.90;48.80
55771;DHT22;41687;-33.234;-60.334;2024-01-30T00:20:45;28.00;49.30
55771;DHT22;41687;-33.234;-60.334;2024-01-30T00:23:13;27.80;49.90
55771;DHT22;41687;-33.234;-60.334;2024-01-30T00:25:41;27.70;49.80
55771;DHT22;41687;-33.234;-60.334;2024-01-30T00:28:08;27.70;49.80
55771;DHT22;41687;-33.234;-60.334;2024-01-30T00:30:36;27.70;49.50
55771;DHT22;41687;-33.234;-60.334;2024-01-30T00:33:04;27.80;49.50
55771;DHT22;41687;-33.234;-60.334;2024-01-30T00:35:31;27.80;49.80
55771;DHT22;41687;-33.234;-60.334;2024-01-30T00:37:59;27.90;50.10
55771;DHT22;41687;-33.234;-60.334;2024-01-30T00:40:27;27.80;49.70
55771;DHT22;41687;-33.234;-60.334;2024-01-30T00:42:55;27.90;49.60
55771;DHT22;41687;-33.234;-60.334;2024-01-30T00:45:22;27.80;49.90
55771;DHT22;41687;-33.234;-60.334;2024-01-30T00:47:51;27.90;50.20
55771;DHT22;41687;-33.234;-60.334;2024-01-30T00:50:18;27.80;50.80
55771;DHT22;41687;-33.234;-60.334;2024-01-30T00:52:46;27.90;51.10
55771;DHT22;41687;-33.234;-60.334;2024-01-30T00:55:13;27.80;51.60
55771;DHT22;41687;-33.234;-60.334;2024-01-30T00:57:41;27.90;52.40
55771;DHT22;41687;-33.234;-60.334;2024-01-30T01:00:09;27.90;52.60
55771;DHT22;41687;-33.234;-60.334;2024-01-30T01:02:37;27.80;53.10
55771;DHT22;41687;-33.234;-60.334;2024-01-30T01:05:06;27.80;53.20
55771;DHT22;41687;-33.234;-60.334;2024-01-30T01:07:34;27.80;54.00
55771;DHT22;41687;-33.234;-60.334;2024-01-30T01:10:02;27.80;54.10
55771;DHT22;41687;-33.234;-60.334;2024-01-30T01:12:30;27.80;54.10
55771;DHT22;41687;-33.234;-60.334;2024-01-30T01:14:58;27.80;54.30
55771;DHT22;41687;-33.234;-60.334;2024-01-30T01:17:26;27.80;54.70
55771;DHT22;41687;-33.234;-60.334;2024-01-30T01:19:53;27.70;55.00
55771;DHT22;41687;-33.234;-60.334;2024-01-30T01:22:21;27.70;55.10
55771;DHT22;41687;-33.234;-60.334;2024-01-30T01:24:49;27.70;55.80
55771;DHT22;41687;-33.234;-60.334;2024-01-30T01:27:17;27.70;55.60
55771;DHT22;41687;-33.234;-60.334;2024-01-30T01:29:44;27.70;55.90
55771;DHT22;41687;-33.234;-60.334;2024-01-30T01:32:12;27.60;56.30
55771;DHT22;41687;-33.234;-60.334;2024-01-30T01:34:39;27.70;56.30
55771;DHT22;41687;-33.234;-60.334;2024-01-30T01:37:08;27.60;56.20
55771;DHT22;41687;-33.234;-60.334;2024-01-30T01:39:36;27.60;56.30
55771;DHT22;41687;-33.234;-60.334;2024-01-30T01:42:04;27.60;56.70
55771;DHT22;41687;-33.234;-60.334;2024-01-30T01:44:31;27.60;57.20
55771;DHT22;41687;-33.234;-60.334;2024-01-30T01:46:59;27.50;57.60
55771;DHT22;41687;-33.234;-60.334;2024-01-30T01:49:27;27.40;58.30
55771;DHT22;41687;-33.234;-60.334;2024-01-30T01:51:57;27.40;58.10
55771;DHT22;41687;-33.234;-60.334;2024-01-30T01:54:26;27.40;58.60
55771;DHT22;41687;-33.234;-60.334;2024-01-30T01:56:54;27.30;58.40
55771;DHT22;41687;-33.234;-60.334;2024-01-30T01:59:22;27.30;58.60
55771;DHT22;41687;-33.234;-60.334;2024-01-30T02:01:52;27.30;58.80
55771;DHT22;41687;-33.234;-60.334;2024-01-30T02:04:20;27.30;58.80
55771;DHT22;41687;-33.234;-60.334;2024-01-30T02:06:47;27.20;58.80
55771;DHT22;41687;-33.234;-60.334;2024-01-30T02:09:15;27.20;58.30
55771;DHT22;41687;-33.234;-60.334;2024-01-30T02:11:43;27.20;58.70
55771;DHT22;41687;-33.234;-60.334;2024-01-30T02:14:10;27.10;58.30
55771;DHT22;41687;-33.234;-60.334;2024-01-30T02:16:37;27.00;58.40
55771;DHT22;41687;-33.234;-60.334;2024-01-30T02:19:05;27.10;58.50
55771;DHT22;41687;-33.234;-60.334;2024-01-30T02:21:35;27.00;59.00
55771;DHT22;41687;-33.234;-60.334;2024-01-30T02:24:03;27.00;59.00
55771;DHT22;41687;-33.234;-60.334;2024-01-30T02:26:31;26.90;59.20
55771;DHT22;41687;-33.234;-60.334;2024-01-30T02:28:59;26.90;59.60
55771;DHT22;41687;-33.234;-60.334;2024-01-30T02:31:27;27.00;60.10
55771;DHT22;41687;-33.234;-60.334;2024-01-30T02:33:54;26.90;59.40
55771;DHT22;41687;-33.234;-60.334;2024-01-30T02:36:21;26.90;59.70
55771;DHT22;41687;-33.234;-60.334;2024-01-30T02:38:49;26.90;59.70
55771;DHT22;41687;-33.234;-60.334;2024-01-30T02:41:17;27.00;60.10
55771;DHT22;41687;-33.234;-60.334;2024-01-30T02:43:45;26.90;60.00
55771;DHT22;41687;-33.234;-60.334;2024-01-30T02:46:13;26.90;60.60
55771;DHT22;41687;-33.234;-60.334;2024-01-30T02:48:40;26.90;60.40
55771;DHT22;41687;-33.234;-60.334;2024-01-30T02:51:08;27.00;60.90
55771;DHT22;41687;-33.234;-60.334;2024-01-30T02:53:35;27.00;60.90
55771;DHT22;41687;-33.234;-60.334;2024-01-30T02:56:03;27.00;61.10
55771;DHT22;41687;-33.234;-60.334;2024-01-30T02:58:32;27.00;61.00
55771;DHT22;41687;-33.234;-60.334;2024-01-30T03:01:00;27.00;60.90
55771;DHT22;41687;-33.234;-60.334;2024-01-30T03:03:27;26.90;60.90
55771;DHT22;41687;-33.234;-60.334;2024-01-30T03:05:55;27.00;61.10
55771;DHT22;41687;-33.234;-60.334;2024-01-30T03:08:22;27.00;61.00
55771;DHT22;41687;-33.234;-60.334;2024-01-30T03:10:50;27.10;60.80
55771;DHT22;41687;-33.234;-60.334;2024-01-30T03:13:17;27.00;60.80
55771;DHT22;41687;-33.234;-60.334;2024-01-30T03:15:45;27.10;60.90
55771;DHT22;41687;-33.234;-60.334;2024-01-30T03:18:12;27.00;61.60
55771;DHT22;41687;-33.234;-60.334;2024-01-30T03:20:39;27.00;60.90
55771;DHT22;41687;-33.234;-60.334;2024-01-30T03:23:07;27.00;61.10
55771;DHT22;41687;-33.234;-60.334;2024-01-30T03:25:35;27.00;61.20
55771;DHT22;41687;-33.234;-60.334;2024-01-30T03:28:02;27.10;61.30
55771;DHT22;41687;-33.234;-60.334;2024-01-30T03:30:30;27.10;60.70
55771;DHT22;41687;-33.234;-60.334;2024-01-30T03:32:57;27.00;60.50
55771;DHT22;41687;-33.234;-60.334;2024-01-30T03:35:26;27.10;61.20
55771;DHT22;41687;-33.234;-60.334;2024-01-30T03:37:53;27.10;60.30
55771;DHT22;41687;-33.234;-60.334;2024-01-30T03:40:21;27.10;60.20
55771;DHT22;41687;-33.234;-60.334;2024-01-30T03:42:48;27.10;60.10
55771;DHT22;41687;-33.234;-60.334;2024-01-30T03:45:16;27.10;60.00
55771;DHT22;41687;-33.234;-60.334;2024-01-30T03:47:46;27.10;59.80
55771;DHT22;41687;-33.234;-60.334;2024-01-30T03:50:13;27.10;59.80
55771;DHT22;41687;-33.234;-60.334;2024-01-30T03:52:41;27.10;59.90
55771;DHT22;41687;-33.234;-60.334;2024-01-30T03:55:09;27.10;60.10
55771;DHT22;41687;-33.234;-60.334;2024-01-30T03:57:36;27.10;60.20
55771;DHT22;41687;-33.234;-60.334;2024-01-30T04:00:04;27.10;60.80
55771;DHT22;41687;-33.234;-60.334;2024-01-30T04:02:38;27.10;60.90
55771;DHT22;41687;-33.234;-60.334;2024-01-30T04:05:06;27.00;61.60
55771;DHT22;41687;-33.234;-60.334;2024-01-30T04:07:33;27.00;61.70
55771;DHT22;41687;-33.234;-60.334;2024-01-30T04:10:02;27.00;62.20
55771;DHT22;41687;-33.234;-60.334;2024-01-30T04:12:32;27.00;62.50
55771;DHT22;41687;-33.234;-60.334;2024-01-30T04:14:59;27.00;62.60
55771;DHT22;41687;-33.234;-60.334;2024-01-30T04:17:27;27.00;63.20
55771;DHT22;41687;-33.234;-60.334;2024-01-30T04:19:55;26.90;63.00
55771;DHT22;41687;-33.234;-60.334;2024-01-30T04:22:23;26.70;62.80
55771;DHT22;41687;-33.234;-60.334;2024-01-30T04:24:50;26.60;62.50
55771;DHT22;41687;-33.234;-60.334;2024-01-30T04:27:18;26.50;62.40
55771;DHT22;41687;-33.234;-60.334;2024-01-30T04:29:45;26.50;62.60
55771;DHT22;41687;-33.234;-60.334;2024-01-30T04:32:13;26.30;63.00
55771;DHT22;41687;-33.234;-60.334;2024-01-30T04:34:40;26.30;63.30
55771;DHT22;41687;-33.234;-60.334;2024-01-30T04:37:08;26.30;63.20
55771;DHT22;41687;-33.234;-60.334;2024-01-30T04:39:36;26.30;63.30
55771;DHT22;41687;-33.234;-60.334;2024-01-30T04:42:04;26.20;63.20
55771;DHT22;41687;-33.234;-60.334;2024-01-30T04:44:31;26.20;63.50
55771;DHT22;41687;-33.234;-60.334;2024-01-30T04:46:59;26.20;63.40
55771;DHT22;41687;-33.234;-60.334;2024-01-30T04:49:28;26.10;63.60
55771;DHT22;41687;-33.234;-60.334;2024-01-30T04:51:56;26.10;64.10
55771;DHT22;41687;-33.234;-60.334;2024-01-30T04:54:23;26.00;64.20
55771;DHT22;41687;-33.234;-60.334;2024-01-30T04:56:51;26.00;64.30
55771;DHT22;41687;-33.234;-60.334;2024-01-30T04:59:19;25.90;64.00
55771;DHT22;41687;-33.234;-60.334;2024-01-30T05:01:46;25.80;63.80
55771;DHT22;41687;-33.234;-60.334;2024-01-30T05:04:13;25.70;64.00
55771;DHT22;41687;-33.234;-60.334;2024-01-30T05:06:41;25.70;64.00
55771;DHT22;41687;-33.234;-60.334;2024-01-30T05:09:08;25.60;64.00
55771;DHT22;41687;-33.234;-60.334;2024-01-30T05:11:40;25.50;64.00
55771;DHT22;41687;-33.234;-60.334;2024-01-30T05:14:08;25.20;64.00
55771;DHT22;41687;-33.234;-60.334;2024-01-30T05:16:36;25.20;64.10
55771;DHT22;41687;-33.234;-60.334;2024-01-30T05:19:04;25.10;63.90
55771;DHT22;41687;-33.234;-60.334;2024-01-30T05:21:32;25.10;63.90
55771;DHT22;41687;-33.234;-60.334;2024-01-30T05:23:59;25.10;63.70
55771;DHT22;41687;-33.234;-60.334;2024-01-30T05:26:26;25.10;63.80
55771;DHT22;41687;-33.234;-60.334;2024-01-30T05:28:54;25.10;63.60
55771;DHT22;41687;-33.234;-60.334;2024-01-30T05:31:22;25.10;63.40
55771;DHT22;41687;-33.234;-60.334;2024-01-30T05:33:49;25.10;63.30
55771;DHT22;41687;-33.234;-60.334;2024-01-30T05:36:17;25.10;63.30
55771;DHT22;41687;-33.234;-60.334;2024-01-30T05:38:45;25.10;63.10
55771;DHT22;41687;-33.234;-60.334;2024-01-30T05:41:12;25.10;63.20
55771;DHT22;41687;-33.234;-60.334;2024-01-30T05:43:40;25.10;62.90
55771;DHT22;41687;-33.234;-60.334;2024-01-30T05:46:07;25.10;62.80
55771;DHT22;41687;-33.234;-60.334;2024-01-30T05:48:36;25.00;62.80
55771;DHT22;41687;-33.234;-60.334;2024-01-30T05:51:03;25.00;63.10
55771;DHT22;41687;-33.234;-60.334;2024-01-30T05:53:31;25.00;63.00
55771;DHT22;41687;-33.234;-60.334;2024-01-30T05:55:59;25.00;63.30
55771;DHT22;41687;-33.234;-60.334;2024-01-30T05:58:26;25.00;63.20
55771;DHT22;41687;-33.234;-60.334;2024-01-30T06:00:54;25.00;63.00
55771;DHT22;41687;-33.234;-60.334;2024-01-30T06:03:21;25.00;62.90
55771;DHT22;41687;-33.234;-60.334;2024-01-30T06:05:49;25.00;63.00
55771;DHT22;41687;-33.234;-60.334;2024-01-30T06:08:18;24.90;63.30
55771;DHT22;41687;-33.234;-60.334;2024-01-30T06:10:45;24.80;63.30
55771;DHT22;41687;-33.234;-60.334;2024-01-30T06:13:14;24.70;63.50
55771;DHT22;41687;-33.234;-60.334;2024-01-30T06:15:42;24.70;63.50
55771;DHT22;41687;-33.234;-60.334;2024-01-30T06:18:10;24.60;63.70
55771;DHT22;41687;-33.234;-60.334;2024-01-30T06:20:37;24.60;63.80
55771;DHT22;41687;-33.234;-60.334;2024-01-30T06:23:05;24.60;63.90
55771;DHT22;41687;-33.234;-60.334;2024-01-30T06:25:32;24.60;63.80
55771;DHT22;41687;-33.234;-60.334;2024-01-30T06:28:00;24.50;63.90
55771;DHT22;41687;-33.234;-60.334;2024-01-30T06:30:27;24.50;64.10
55771;DHT22;41687;-33.234;-60.334;2024-01-30T06:32:55;24.40;64.50
55771;DHT22;41687;-33.234;-60.334;2024-01-30T06:35:23;24.40;64.40
55771;DHT22;41687;-33.234;-60.334;2024-01-30T06:37:54;24.40;65.10
55771;DHT22;41687;-33.234;-60.334;2024-01-30T06:40:22;24.30;65.00
55771;DHT22;41687;-33.234;-60.334;2024-01-30T06:42:49;24.30;64.90
55771;DHT22;41687;-33.234;-60.334;2024-01-30T06:45:17;24.40;65.00
55771;DHT22;41687;-33.234;-60.334;2024-01-30T06:47:44;24.40;65.00
55771;DHT22;41687;-33.234;-60.334;2024-01-30T06:50:12;24.40;65.10
55771;DHT22;41687;-33.234;-60.334;2024-01-30T06:52:40;24.40;65.40
55771;DHT22;41687;-33.234;-60.334;2024-01-30T06:55:09;24.50;65.30
55771;DHT22;41687;-33.234;-60.334;2024-01-30T06:57:36;24.50;65.60
55771;DHT22;41687;-33.234;-60.334;2024-01-30T07:00:04;24.50;65.60
55771;DHT22;41687;-33.234;-60.334;2024-01-30T07:02:32;24.50;65.60
55771;DHT22;41687;-33.234;-60.334;2024-01-30T07:05:00;24.50;65.80
55771;DHT22;41687;-33.234;-60.334;2024-01-30T07:07:27;24.60;66.40
55771;DHT22;41687;-33.234;-60.334;2024-01-30T07:09:56;24.60;66.90
55771;DHT22;41687;-33.234;-60.334;2024-01-30T07:12:23;24.60;67.40
55771;DHT22;41687;-33.234;-60.334;2024-01-30T07:14:53;24.70;67.90
55771;DHT22;41687;-33.234;-60.334;2024-01-30T07:17:22;24.80;68.20
55771;DHT22;41687;-33.234;-60.334;2024-01-30T07:19:50;24.90;69.00
55771;DHT22;41687;-33.234;-60.334;2024-01-30T07:22:17;24.90;69.80
55771;DHT22;41687;-33.234;-60.334;2024-01-30T07:24:45;25.00;71.40
55771;DHT22;41687;-33.234;-60.334;2024-01-30T07:27:15;25.00;71.60
55771;DHT22;41687;-33.234;-60.334;2024-01-30T07:29:44;25.10;73.70
55771;DHT22;41687;-33.234;-60.334;2024-01-30T07:32:12;25.20;75.30
55771;DHT22;41687;-33.234;-60.334;2024-01-30T07:34:39;25.20;76.60
55771;DHT22;41687;-33.234;-60.334;2024-01-30T07:37:07;25.20;76.80
55771;DHT22;41687;-33.234;-60.334;2024-01-30T07:39:35;25.20;77.20
55771;DHT22;41687;-33.234;-60.334;2024-01-30T07:42:03;25.30;77.20
55771;DHT22;41687;-33.234;-60.334;2024-01-30T07:44:31;25.30;77.50
55771;DHT22;41687;-33.234;-60.334;2024-01-30T07:46:59;25.20;74.40
55771;DHT22;41687;-33.234;-60.334;2024-01-30T07:49:26;25.10;72.40
55771;DHT22;41687;-33.234;-60.334;2024-01-30T07:51:54;25.00;71.50
55771;DHT22;41687;-33.234;-60.334;2024-01-30T07:54:21;24.90;70.60
55771;DHT22;41687;-33.234;-60.334;2024-01-30T07:56:51;24.90;70.30
55771;DHT22;41687;-33.234;-60.334;2024-01-30T07:59:19;24.60;71.30
55771;DHT22;41687;-33.234;-60.334;2024-01-30T08:01:48;24.60;71.00
55771;DHT22;41687;-33.234;-60.334;2024-01-30T08:04:15;24.60;71.80
55771;DHT22;41687;-33.234;-60.334;2024-01-30T08:06:44;24.60;71.70
55771;DHT22;41687;-33.234;-60.334;2024-01-30T08:09:11;24.60;71.70
55771;DHT22;41687;-33.234;-60.334;2024-01-30T08:11:39;24.50;71.90
55771;DHT22;41687;-33.234;-60.334;2024-01-30T08:14:06;24.50;72.00
55771;DHT22;41687;-33.234;-60.334;2024-01-30T08:16:34;24.60;72.30
55771;DHT22;41687;-33.234;-60.334;2024-01-30T08:19:02;24.60;72.70
55771;DHT22;41687;-33.234;-60.334;2024-01-30T08:21:30;24.50;72.70
55771;DHT22;41687;-33.234;-60.334;2024-01-30T08:24:04;24.60;72.60
55771;DHT22;41687;-33.234;-60.334;2024-01-30T08:26:34;24.60;72.30
55771;DHT22;41687;-33.234;-60.334;2024-01-30T08:29:02;24.60;72.20
55771;DHT22;41687;-33.234;-60.334;2024-01-30T08:31:29;24.60;72.90
55771;DHT22;41687;-33.234;-60.334;2024-01-30T08:33:57;24.60;72.40
55771;DHT22;41687;-33.234;-60.334;2024-01-30T08:36:25;24.60;71.70
55771;DHT22;41687;-33.234;-60.334;2024-01-30T08:38:53;24.60;71.10
55771;DHT22;41687;-33.234;-60.334;2024-01-30T08:41:20;24.50;70.70
55771;DHT22;41687;-33.234;-60.334;2024-01-30T08:43:47;24.50;70.50
55771;DHT22;41687;-33.234;-60.334;2024-01-30T08:46:18;24.40;70.50
55771;DHT22;41687;-33.234;-60.334;2024-01-30T08:48:46;24.30;70.80
55771;DHT22;41687;-33.234;-60.334;2024-01-30T08:51:14;24.30;71.30
55771;DHT22;41687;-33.234;-60.334;2024-01-30T08:53:42;24.20;71.30
55771;DHT22;41687;-33.234;-60.334;2024-01-30T08:56:10;24.10;71.80
55771;DHT22;41687;-33.234;-60.334;2024-01-30T08:58:37;24.00;71.30
55771;DHT22;41687;-33.234;-60.334;2024-01-30T09:01:05;24.00;71.10
55771;DHT22;41687;-33.234;-60.334;2024-01-30T09:03:33;24.00;71.00
55771;DHT22;41687;-33.234;-60.334;2024-01-30T09:06:00;23.90;71.40
55771;DHT22;41687;-33.234;-60.334;2024-01-30T09:08:28;23.80;71.30
55771;DHT22;41687;-33.234;-60.334;2024-01-30T09:10:55;23.90;71.10
55771;DHT22;41687;-33.234;-60.334;2024-01-30T09:13:23;23.80;71.10
55771;DHT22;41687;-33.234;-60.334;2024-01-30T09:15:51;23.80;70.90
55771;DHT22;41687;-33.234;-60.334;2024-01-30T09:18:19;23.80;71.10
55771;DHT22;41687;-33.234;-60.334;2024-01-30T09:20:46;23.80;71.00
55771;DHT22;41687;-33.234;-60.334;2024-01-30T09:23:14;23.80;70.90
55771;DHT22;41687;-33.234;-60.334;2024-01-30T09:25:42;23.80;70.50
55771;DHT22;41687;-33.234;-60.334;2024-01-30T09:28:10;23.80;70.60
55771;DHT22;41687;-33.234;-60.334;2024-01-30T09:30:37;23.80;70.40
55771;DHT22;41687;-33.234;-60.334;2024-01-30T09:33:06;23.70;70.60
55771;DHT22;41687;-33.234;-60.334;2024-01-30T09:35:33;23.80;70.50
55771;DHT22;41687;-33.234;-60.334;2024-01-30T09:38:02;23.80;70.50
55771;DHT22;41687;-33.234;-60.334;2024-01-30T09:40:30;23.80;70.50
55771;DHT22;41687;-33.234;-60.334;2024-01-30T09:42:59;23.80;70.30
55771;DHT22;41687;-33.234;-60.334;2024-01-30T09:45:30;23.80;70.30
55771;DHT22;41687;-33.234;-60.334;2024-01-30T09:47:59;23.80;70.20
55771;DHT22;41687;-33.234;-60.334;2024-01-30T09:50:28;23.80;70.30
55771;DHT22;41687;-33.234;-60.334;2024-01-30T09:52:56;23.90;70.10
55771;DHT22;41687;-33.234;-60.334;2024-01-30T09:55:24;23.80;70.20
55771;DHT22;41687;-33.234;-60.334;2024-01-30T09:57:52;23.80;69.90
55771;DHT22;41687;-33.234;-60.334;2024-01-30T10:00:20;23.90;69.80
55771;DHT22;41687;-33.234;-60.334;2024-01-30T10:02:49;23.90;70.10
55771;DHT22;41687;-33.234;-60.334;2024-01-30T10:05:19;23.90;70.60
55771;DHT22;41687;-33.234;-60.334;2024-01-30T10:07:53;24.00;70.20
55771;DHT22;41687;-33.234;-60.334;2024-01-30T10:10:25;24.10;70.30
55771;DHT22;41687;-33.234;-60.334;2024-01-30T10:12:53;24.30;70.50
55771;DHT22;41687;-33.234;-60.334;2024-01-30T10:15:20;24.30;70.90
55771;DHT22;41687;-33.234;-60.334;2024-01-30T10:17:49;24.40;71.20
55771;DHT22;41687;-33.234;-60.334;2024-01-30T10:20:16;24.50;71.00
55771;DHT22;41687;-33.234;-60.334;2024-01-30T10:22:46;24.60;71.40
55771;DHT22;41687;-33.234;-60.334;2024-01-30T10:25:14;24.80;70.60
55771;DHT22;41687;-33.234;-60.334;2024-01-30T10:27:42;24.90;70.80
55771;DHT22;41687;-33.234;-60.334;2024-01-30T10:30:09;25.00;71.00
55771;DHT22;41687;-33.234;-60.334;2024-01-30T10:32:38;25.10;71.10
55771;DHT22;41687;-33.234;-60.334;2024-01-30T10:35:05;25.30;71.10
55771;DHT22;41687;-33.234;-60.334;2024-01-30T10:37:33;25.40;70.90
55771;DHT22;41687;-33.234;-60.334;2024-01-30T10:40:03;25.50;71.10
55771;DHT22;41687;-33.234;-60.334;2024-01-30T10:42:37;25.60;71.20
55771;DHT22;41687;-33.234;-60.334;2024-01-30T10:45:12;25.80;71.90
55771;DHT22;41687;-33.234;-60.334;2024-01-30T10:47:48;26.00;73.10
55771;DHT22;41687;-33.234;-60.334;2024-01-30T10:50:16;26.10;73.90
55771;DHT22;41687;-33.234;-60.334;2024-01-30T10:52:45;26.30;74.40
55771;DHT22;41687;-33.234;-60.334;2024-01-30T10:55:15;26.30;74.70
55771;DHT22;41687;-33.234;-60.334;2024-01-30T10:57:42;26.60;74.50
55771;DHT22;41687;-33.234;-60.334;2024-01-30T11:00:14;26.70;74.00
55771;DHT22;41687;-33.234;-60.334;2024-01-30T11:02:47;26.80;74.00
55771;DHT22;41687;-33.234;-60.334;2024-01-30T11:05:15;26.90;74.20
55771;DHT22;41687;-33.234;-60.334;2024-01-30T11:07:51;27.00;74.80
55771;DHT22;41687;-33.234;-60.334;2024-01-30T11:10:18;27.20;73.90
55771;DHT22;41687;-33.234;-60.334;2024-01-30T11:12:46;27.40;73.40
55771;DHT22;41687;-33.234;-60.334;2024-01-30T11:15:15;27.50;73.90
55771;DHT22;41687;-33.234;-60.334;2024-01-30T11:20:25;27.70;74.40
55771;DHT22;41687;-33.234;-60.334;2024-01-30T11:22:55;27.80;72.80
55771;DHT22;41687;-33.234;-60.334;2024-01-30T11:25:24;28.00;71.50
55771;DHT22;41687;-33.234;-60.334;2024-01-30T11:27:55;28.30;69.80
55771;DHT22;41687;-33.234;-60.334;2024-01-30T11:30:27;28.50;67.90
55771;DHT22;41687;-33.234;-60.334;2024-01-30T11:33:11;28.40;66.20
55771;DHT22;41687;-33.234;-60.334;2024-01-30T11:35:41;28.60;65.50
55771;DHT22;41687;-33.234;-60.334;2024-01-30T11:38:12;28.80;65.30
55771;DHT22;41687;-33.234;-60.334;2024-01-30T11:40:41;29.10;65.00
55771;DHT22;41687;-33.234;-60.334;2024-01-30T11:43:09;29.10;64.50
55771;DHT22;41687;-33.234;-60.334;2024-01-30T11:45:37;28.90;64.70
55771;DHT22;41687;-33.234;-60.334;2024-01-30T11:48:06;29.00;64.80
55771;DHT22;41687;-33.234;-60.334;2024-01-30T11:50:38;29.10;64.00
55771;DHT22;41687;-33.234;-60.334;2024-01-30T11:53:07;29.60;63.90
55771;DHT22;41687;-33.234;-60.334;2024-01-30T11:55:35;29.70;62.40
55771;DHT22;41687;-33.234;-60.334;2024-01-30T11:58:05;29.50;60.90
55771;DHT22;41687;-33.234;-60.334;2024-01-30T12:00:32;29.70;61.10
55771;DHT22;41687;-33.234;-60.334;2024-01-30T12:03:00;29.70;61.80
55771;DHT22;41687;-33.234;-60.334;2024-01-30T12:05:28;30.00;62.50
55771;DHT22;41687;-33.234;-60.334;2024-01-30T12:07:56;30.00;62.40
55771;DHT22;41687;-33.234;-60.334;2024-01-30T12:10:27;30.20;61.70
55771;DHT22;41687;-33.234;-60.334;2024-01-30T12:12:55;30.50;60.80
55771;DHT22;41687;-33.234;-60.334;2024-01-30T12:15:23;30.50;59.90
55771;DHT22;41687;-33.234;-60.334;2024-01-30T12:17:51;30.50;60.40
55771;DHT22;41687;-33.234;-60.334;2024-01-30T12:20:19;30.50;60.70
55771;DHT22;41687;-33.234;-60.334;2024-01-30T12:22:49;30.60;61.00
55771;DHT22;41687;-33.234;-60.334;2024-01-30T12:25:18;30.40;58.60
55771;DHT22;41687;-33.234;-60.334;2024-01-30T12:27:48;30.50;57.90
55771;DHT22;41687;-33.234;-60.334;2024-01-30T12:30:20;30.50;56.10
55771;DHT22;41687;-33.234;-60.334;2024-01-30T12:32:50;30.50;57.00
55771;DHT22;41687;-33.234;-60.334;2024-01-30T12:35:19;30.80;57.90
55771;DHT22;41687;-33.234;-60.334;2024-01-30T12:37:49;31.00;58.20
55771;DHT22;41687;-33.234;-60.334;2024-01-30T12:40:17;31.00;57.00
55771;DHT22;41687;-33.234;-60.334;2024-01-30T12:42:47;31.10;55.10
55771;DHT22;41687;-33.234;-60.334;2024-01-30T12:45:18;31.20;54.30
55771;DHT22;41687;-33.234;-60.334;2024-01-30T12:47:49;31.30;54.40
55771;DHT22;41687;-33.234;-60.334;2024-01-30T12:50:16;31.30;55.60
55771;DHT22;41687;-33.234;-60.334;2024-01-30T12:52:44;31.70;55.70
55771;DHT22;41687;-33.234;-60.334;2024-01-30T12:55:12;31.70;52.40
55771;DHT22;41687;-33.234;-60.334;2024-01-30T12:57:39;31.60;53.90
55771;DHT22;41687;-33.234;-60.334;2024-01-30T13:00:08;31.40;52.70
55771;DHT22;41687;-33.234;-60.334;2024-01-30T13:02:36;31.60;49.10
55771;DHT22;41687;-33.234;-60.334;2024-01-30T13:05:04;31.40;50.40
55771;DHT22;41687;-33.234;-60.334;2024-01-30T13:07:33;31.50;48.00
55771;DHT22;41687;-33.234;-60.334;2024-01-30T13:10:01;31.80;49.80
55771;DHT22;41687;-33.234;-60.334;2024-01-30T13:12:31;32.20;47.00
55771;DHT22;41687;-33.234;-60.334;2024-01-30T13:15:03;32.20;50.90
55771;DHT22;41687;-33.234;-60.334;2024-01-30T13:17:31;32.50;49.80
55771;DHT22;41687;-33.234;-60.334;2024-01-30T13:20:00;32.90;49.60
55771;DHT22;41687;-33.234;-60.334;2024-01-30T13:22:27;33.10;48.60
55771;DHT22;41687;-33.234;-60.334;2024-01-30T13:24:55;33.10;48.30
55771;DHT22;41687;-33.234;-60.334;2024-01-30T13:27:23;33.00;46.90
55771;DHT22;41687;-33.234;-60.334;2024-01-30T13:29:50;32.90;44.80
55771;DHT22;41687;-33.234;-60.334;2024-01-30T13:32:18;32.80;46.70
55771;DHT22;41687;-33.234;-60.334;2024-01-30T13:34:49;32.70;45.50
55771;DHT22;41687;-33.234;-60.334;2024-01-30T13:37:17;32.50;45.90
55771;DHT22;41687;-33.234;-60.334;2024-01-30T13:39:44;32.90;48.00
55771;DHT22;41687;-33.234;-60.334;2024-01-30T13:42:12;33.10;49.20
55771;DHT22;41687;-33.234;-60.334;2024-01-30T13:44:40;32.90;43.30
55771;DHT22;41687;-33.234;-60.334;2024-01-30T13:47:07;33.00;46.10
55771;DHT22;41687;-33.234;-60.334;2024-01-30T13:49:34;33.20;46.50
55771;DHT22;41687;-33.234;-60.334;2024-01-30T13:52:03;33.10;44.70
55771;DHT22;41687;-33.234;-60.334;2024-01-30T13:54:30;33.30;45.00
55771;DHT22;41687;-33.234;-60.334;2024-01-30T13:56:58;33.30;45.00
55771;DHT22;41687;-33.234;-60.334;2024-01-30T13:59:25;33.40;45.80
55771;DHT22;41687;-33.234;-60.334;2024-01-30T14:01:53;33.70;45.00
55771;DHT22;41687;-33.234;-60.334;2024-01-30T14:04:21;33.50;46.30
55771;DHT22;41687;-33.234;-60.334;2024-01-30T14:06:48;33.90;46.20
55771;DHT22;41687;-33.234;-60.334;2024-01-30T14:09:16;34.10;45.50
55771;DHT22;41687;-33.234;-60.334;2024-01-30T14:11:44;34.40;46.40
55771;DHT22;41687;-33.234;-60.334;2024-01-30T14:14:11;34.40;45.70
55771;DHT22;41687;-33.234;-60.334;2024-01-30T14:16:39;34.50;43.00
55771;DHT22;41687;-33.234;-60.334;2024-01-30T14:19:06;34.10;43.80
55771;DHT22;41687;-33.234;-60.334;2024-01-30T14:21:34;34.10;41.90
55771;DHT22;41687;-33.234;-60.334;2024-01-30T14:24:04;34.40;42.60
55771;DHT22;41687;-33.234;-60.334;2024-01-30T14:26:32;34.70;38.80
55771;DHT22;41687;-33.234;-60.334;2024-01-30T14:29:00;34.30;41.80
55771;DHT22;41687;-33.234;-60.334;2024-01-30T14:31:27;33.90;37.40
55771;DHT22;41687;-33.234;-60.334;2024-01-30T14:33:55;33.80;41.10
55771;DHT22;41687;-33.234;-60.334;2024-01-30T14:36:22;33.70;38.10
55771;DHT22;41687;-33.234;-60.334;2024-01-30T14:38:55;33.50;40.10
55771;DHT22;41687;-33.234;-60.334;2024-01-30T14:41:23;33.80;42.10
55771;DHT22;41687;-33.234;-60.334;2024-01-30T14:43:53;34.10;40.50
55771;DHT22;41687;-33.234;-60.334;2024-01-30T14:46:22;34.40;42.60
55771;DHT22;41687;-33.234;-60.334;2024-01-30T14:48:50;34.70;40.20
55771;DHT22;41687;-33.234;-60.334;2024-01-30T14:51:21;35.00;37.80
55771;DHT22;41687;-33.234;-60.334;2024-01-30T14:53:48;35.00;41.30
55771;DHT22;41687;-33.234;-60.334;2024-01-30T14:56:17;34.80;39.10